Time;durP1;ratioP1;P1;durP2;ratioP2;P2;SDS_P1;SDS_P2;PMS_P1;PMS_P2;Temp;Humidity;BMP_temperature;BMP_pressure;BME280_temperature;BME280_humidity;BME280_pressure;Samples;Min_cycle;Max_cycle;Signal;HPM_P1;HPM_P2
2022/10/15 00:01:29;;;;;;;28.10;18.90;;;13.80;99.90;;;;;;5028815;28;20685;-62
2022/10/15 00:04:00;;;;;;;31.03;19.00;;;13.80;99.90;;;;;;5023500;28;20201;-62
2022/10/15 00:06:28;;;;;;;30.90;20.23;;;13.80;99.90;;;;;;5048350;28;20203;-62
2022/10/15 00:08:57;;;;;;;28.70;18.83;;;13.80;99.90;;;;;;5030554;28;20204;-62
2022/10/15 00:11:27;;;;;;;29.77;18.97;;;13.80;99.90;;;;;;5037660;28;20236;-62
2022/10/15 00:13:58;;;;;;;29.50;19.03;;;13.80;99.90;;;;;;5035987;28;20213;-62
2022/10/15 00:16:28;;;;;;;30.50;20.17;;;13.80;99.90;;;;;;5036043;28;20198;-62
2022/10/15 00:18:59;;;;;;;30.73;20.40;;;13.80;99.90;;;;;;5028985;28;20217;-62
2022/10/15 00:21:28;;;;;;;34.77;19.67;;;13.80;99.90;;;;;;5046755;28;20197;-62
2022/10/15 00:23:57;;;;;;;31.33;19.87;;;13.90;99.90;;;;;;5028257;28;20553;-62
2022/10/15 00:26:27;;;;;;;28.93;19.10;;;13.90;99.90;;;;;;5029326;28;20201;-62
2022/10/15 00:28:57;;;;;;;31.33;19.70;;;13.90;99.90;;;;;;5029299;28;20200;-62
2022/10/15 00:31:27;;;;;;;33.47;20.53;;;13.90;99.90;;;;;;5031476;28;20247;-62
2022/10/15 00:33:57;;;;;;;27.73;18.97;;;13.90;99.90;;;;;;5025685;28;20201;-62
2022/10/15 00:36:29;;;;;;;34.73;20.87;;;13.80;99.90;;;;;;5037305;28;20204;-62
2022/10/15 00:38:58;;;;;;;31.10;20.63;;;13.80;99.90;;;;;;5043846;28;20218;-62
2022/10/15 00:41:29;;;;;;;30.50;20.23;;;13.80;99.90;;;;;;5047873;28;20186;-62
2022/10/15 00:43:58;;;;;;;29.60;21.13;;;13.80;99.90;;;;;;5031243;28;20209;-62
2022/10/15 00:46:31;;;;;;;34.23;21.10;;;13.80;99.90;;;;;;5039073;28;20593;-62
2022/10/15 00:49:04;;;;;;;32.00;20.57;;;13.80;99.90;;;;;;5031551;28;20194;-62
2022/10/15 00:51:39;;;;;;;32.57;20.63;;;13.70;99.90;;;;;;5046531;28;20200;-62
2022/10/15 00:54:10;;;;;;;32.83;21.50;;;13.80;99.90;;;;;;5034707;28;20194;-62
2022/10/15 00:56:40;;;;;;;30.83;20.10;;;13.80;99.90;;;;;;5032304;28;20205;-62
2022/10/15 00:59:09;;;;;;;32.27;20.90;;;13.70;99.90;;;;;;5032283;28;20217;-62
2022/10/15 01:01:38;;;;;;;32.70;21.03;;;13.80;99.90;;;;;;5027581;28;20228;-59
2022/10/15 01:04:07;;;;;;;31.60;20.57;;;13.70;99.90;;;;;;5028901;28;20202;-59
2022/10/15 01:06:38;;;;;;;31.50;20.33;;;13.70;99.90;;;;;;5038510;28;20205;-59
2022/10/15 01:09:07;;;;;;;33.03;21.27;;;13.70;99.90;;;;;;5034610;28;20283;-59
2022/10/15 01:11:41;;;;;;;34.57;21.70;;;13.70;99.90;;;;;;5030843;28;20228;-59
2022/10/15 01:14:26;;;;;;;30.10;20.13;;;13.70;99.90;;;;;;5029270;28;20219;-59
2022/10/15 01:16:59;;;;;;;30.83;20.67;;;13.70;99.90;;;;;;5028854;28;20204;-59
2022/10/15 01:20:04;;;;;;;31.20;20.33;;;13.60;99.90;;;;;;5027145;28;20209;-59
2022/10/15 01:22:47;;;;;;;29.90;20.53;;;13.60;99.90;;;;;;5035270;28;20789;-60
2022/10/15 01:25:29;;;;;;;30.90;20.50;;;13.50;99.90;;;;;;5026401;28;20197;-59
2022/10/15 01:28:04;;;;;;;34.67;21.50;;;13.50;99.90;;;;;;5029489;28;20249;-59
2022/10/15 01:30:38;;;;;;;33.93;21.73;;;13.50;99.90;;;;;;5035148;28;20200;-59
2022/10/15 01:33:23;;;;;;;32.93;21.00;;;13.50;99.90;;;;;;5027074;28;20579;-59
2022/10/15 01:35:54;;;;;;;32.33;21.27;;;13.50;99.90;;;;;;5029205;28;20291;-59
2022/10/15 01:38:35;;;;;;;34.60;20.60;;;13.50;99.90;;;;;;5029189;28;20220;-59
2022/10/15 01:41:10;;;;;;;30.50;20.13;;;13.50;99.90;;;;;;5024383;28;20549;-59
2022/10/15 01:43:44;;;;;;;29.73;20.20;;;13.40;99.90;;;;;;5027622;28;20200;-59
2022/10/15 01:46:19;;;;;;;35.47;20.10;;;13.40;99.90;;;;;;5042306;28;20201;-59
2022/10/15 01:48:49;;;;;;;33.30;20.60;;;13.40;99.90;;;;;;5029013;28;20197;-59
2022/10/15 01:51:19;;;;;;;33.93;20.70;;;13.40;99.90;;;;;;5030705;28;20224;-59
2022/10/15 01:53:48;;;;;;;33.63;20.97;;;13.40;99.90;;;;;;5032846;28;20202;-59
2022/10/15 01:56:21;;;;;;;36.77;21.83;;;13.40;99.90;;;;;;5025274;28;20193;-59
2022/10/15 01:58:54;;;;;;;31.23;21.27;;;13.40;99.90;;;;;;5026767;28;20283;-59
2022/10/15 02:01:24;;;;;;;40.53;22.93;;;13.40;99.90;;;;;;5024470;28;20207;-59
2022/10/15 02:03:53;;;;;;;40.20;23.17;;;13.30;99.90;;;;;;5030098;28;20280;-59
2022/10/15 02:06:27;;;;;;;35.13;22.17;;;13.30;99.90;;;;;;5027517;28;20201;-59
2022/10/15 02:09:07;;;;;;;39.17;22.07;;;13.30;99.90;;;;;;5032097;28;20600;-59
2022/10/15 02:11:50;;;;;;;35.50;22.17;;;13.30;99.90;;;;;;5026636;28;20283;-59
2022/10/15 02:14:28;;;;;;;35.07;21.17;;;13.30;99.90;;;;;;5035270;28;20188;-59
2022/10/15 02:17:03;;;;;;;33.00;21.80;;;13.20;99.90;;;;;;5030858;28;20201;-59
2022/10/15 02:19:37;;;;;;;37.30;22.47;;;13.20;99.90;;;;;;5038455;28;20217;-59
2022/10/15 02:22:11;;;;;;;36.53;22.43;;;13.20;99.90;;;;;;5030377;28;20203;-59
2022/10/15 02:24:43;;;;;;;36.80;22.07;;;13.30;99.90;;;;;;5030876;28;20208;-59
2022/10/15 02:27:15;;;;;;;35.63;22.33;;;13.30;99.90;;;;;;5030910;28;20193;-59
2022/10/15 02:29:45;;;;;;;37.10;22.10;;;13.40;99.90;;;;;;5029626;28;20205;-59
2022/10/15 02:32:16;;;;;;;37.20;22.93;;;13.40;99.90;;;;;;5029806;28;20220;-59
2022/10/15 02:34:46;;;;;;;39.90;24.23;;;13.50;99.90;;;;;;5030662;28;20209;-59
2022/10/15 02:37:17;;;;;;;41.70;25.90;;;13.50;99.90;;;;;;5025284;28;20197;-59
2022/10/15 02:39:45;;;;;;;46.37;27.40;;;13.50;99.90;;;;;;5030601;28;20235;-59
2022/10/15 02:42:18;;;;;;;52.80;28.40;;;13.60;99.90;;;;;;5036408;28;20196;-59
2022/10/15 02:44:46;;;;;;;70.63;32.43;;;13.60;99.90;;;;;;5029787;28;20647;-59
2022/10/15 02:47:16;;;;;;;72.83;33.87;;;13.50;99.90;;;;;;5029119;28;20189;-59
2022/10/15 02:49:44;;;;;;;75.27;34.03;;;13.60;99.90;;;;;;5028753;28;20240;-59
2022/10/15 02:52:12;;;;;;;75.63;32.67;;;13.70;99.90;;;;;;5030076;28;20224;-59
2022/10/15 02:54:41;;;;;;;74.77;32.33;;;13.70;99.90;;;;;;5031960;28;20185;-59
2022/10/15 02:57:09;;;;;;;68.57;31.27;;;13.70;99.90;;;;;;5031512;28;20193;-59
2022/10/15 02:59:37;;;;;;;66.43;30.77;;;13.80;99.90;;;;;;5030139;28;20240;-59
2022/10/15 03:02:06;;;;;;;57.73;28.30;;;13.70;99.90;;;;;;5028927;28;20189;-59
2022/10/15 03:04:36;;;;;;;58.50;29.43;;;13.70;99.90;;;;;;5030072;28;20189;-59
2022/10/15 03:07:04;;;;;;;56.40;27.10;;;13.60;99.90;;;;;;5032664;28;20721;-59
2022/10/15 03:09:33;;;;;;;52.57;26.63;;;13.70;99.90;;;;;;5028540;28;20218;-59
2022/10/15 03:12:01;;;;;;;49.33;25.03;;;13.60;99.90;;;;;;5030594;28;20198;-59
2022/10/15 03:14:29;;;;;;;48.47;24.73;;;13.60;99.90;;;;;;5048187;28;20193;-59
2022/10/15 03:16:58;;;;;;;47.30;23.40;;;13.70;99.90;;;;;;5041342;28;20255;-59
2022/10/15 03:19:26;;;;;;;40.50;22.37;;;13.70;99.90;;;;;;5030925;28;20256;-59
2022/10/15 03:21:59;;;;;;;44.20;22.80;;;13.70;99.90;;;;;;5040379;28;20201;-59
2022/10/15 03:24:27;;;;;;;38.57;22.20;;;13.70;99.90;;;;;;5040536;28;20641;-59
2022/10/15 03:26:56;;;;;;;42.17;22.60;;;13.60;99.90;;;;;;5029920;28;20201;-59
2022/10/15 03:29:24;;;;;;;42.03;21.80;;;13.60;99.90;;;;;;5033746;28;20186;-59
2022/10/15 03:31:53;;;;;;;42.70;22.60;;;13.50;99.90;;;;;;5024714;28;20204;-59
2022/10/15 03:34:23;;;;;;;40.27;22.20;;;13.60;99.90;;;;;;5030710;28;20693;-59
2022/10/15 03:36:51;;;;;;;40.17;21.60;;;13.60;99.90;;;;;;5028462;28;20198;-59
2022/10/15 03:39:21;;;;;;;39.67;21.13;;;13.60;99.90;;;;;;5034362;28;20720;-59
2022/10/15 03:41:52;;;;;;;35.40;21.40;;;13.60;99.90;;;;;;5030816;28;20749;-59
2022/10/15 03:44:20;;;;;;;35.60;20.83;;;13.60;99.90;;;;;;5036862;28;20734;-59
2022/10/15 03:46:49;;;;;;;31.53;19.73;;;13.60;99.90;;;;;;5031854;28;20201;-59
2022/10/15 03:49:17;;;;;;;35.83;20.70;;;13.60;99.90;;;;;;5042122;28;20182;-59
2022/10/15 03:51:45;;;;;;;30.97;19.40;;;13.60;99.90;;;;;;5031135;28;20194;-59
2022/10/15 03:54:13;;;;;;;29.37;19.97;;;13.50;99.90;;;;;;5035639;28;20557;-59
2022/10/15 03:56:43;;;;;;;32.40;19.43;;;13.60;99.90;;;;;;5031537;28;20573;-60
2022/10/15 03:59:12;;;;;;;32.00;19.90;;;13.60;99.90;;;;;;5028224;28;20224;-60
2022/10/15 04:01:40;;;;;;;34.50;19.50;;;13.60;99.90;;;;;;5027236;28;20189;-59
2022/10/15 04:04:11;;;;;;;25.30;18.13;;;13.60;99.90;;;;;;5005694;28;20264;-59
2022/10/15 04:06:39;;;;;;;30.60;18.67;;;13.60;99.90;;;;;;5025973;28;20205;-59
2022/10/15 04:09:10;;;;;;;29.63;19.33;;;13.60;99.90;;;;;;5027634;28;20730;-59
2022/10/15 04:11:38;;;;;;;28.90;17.97;;;13.60;99.90;;;;;;4985969;28;20205;-59
2022/10/15 04:14:09;;;;;;;25.37;16.97;;;13.60;99.90;;;;;;4994382;28;20198;-59
2022/10/15 04:16:37;;;;;;;29.90;19.07;;;13.60;99.90;;;;;;4989324;28;20203;-59
2022/10/15 04:19:05;;;;;;;30.87;18.33;;;13.60;99.90;;;;;;4987555;28;20195;-59
2022/10/15 04:21:38;;;;;;;31.87;18.93;;;13.60;99.90;;;;;;4990890;28;20195;-59
2022/10/15 04:24:06;;;;;;;30.93;19.70;;;13.60;99.90;;;;;;4996128;28;20539;-59
2022/10/15 04:26:35;;;;;;;33.57;20.27;;;13.60;99.90;;;;;;4999408;28;20191;-59
2022/10/15 04:29:04;;;;;;;29.90;19.00;;;13.60;99.90;;;;;;4993551;28;20194;-59
2022/10/15 04:31:33;;;;;;;33.27;18.93;;;13.60;99.90;;;;;;5000194;28;20195;-59
2022/10/15 04:34:02;;;;;;;31.60;18.90;;;13.60;99.90;;;;;;4992117;28;20194;-59
2022/10/15 04:36:30;;;;;;;30.10;18.67;;;13.60;99.90;;;;;;5007583;28;20643;-59
2022/10/15 04:38:58;;;;;;;32.23;18.57;;;13.60;99.90;;;;;;4996046;28;20310;-59
2022/10/15 04:41:27;;;;;;;32.07;18.67;;;13.60;99.90;;;;;;4984019;28;20223;-59
2022/10/15 04:43:55;;;;;;;37.37;18.00;;;13.60;99.90;;;;;;4992904;28;20194;-59
2022/10/15 04:46:23;;;;;;;28.60;18.47;;;13.60;99.90;;;;;;4994572;28;20202;-59
2022/10/15 04:48:56;;;;;;;29.23;18.17;;;13.60;99.90;;;;;;4996947;28;20249;-59
2022/10/15 04:51:26;;;;;;;28.30;17.13;;;13.60;99.90;;;;;;5005408;28;20700;-59
2022/10/15 04:53:55;;;;;;;28.43;17.10;;;13.60;99.90;;;;;;4997424;28;20206;-59
2022/10/15 04:56:23;;;;;;;25.57;16.47;;;13.60;99.90;;;;;;5012798;28;20187;-59
2022/10/15 04:58:52;;;;;;;26.27;16.83;;;13.60;99.90;;;;;;4994336;28;20198;-59
2022/10/15 05:01:21;;;;;;;27.47;16.93;;;13.70;99.90;;;;;;4991474;28;20214;-59
2022/10/15 05:03:49;;;;;;;26.43;15.37;;;13.60;99.90;;;;;;4989468;28;20206;-59
2022/10/15 05:06:22;;;;;;;26.10;16.30;;;13.60;99.90;;;;;;4989763;28;20199;-59
2022/10/15 05:08:51;;;;;;;27.47;16.43;;;13.60;99.90;;;;;;4990981;28;20199;-59
2022/10/15 05:11:25;;;;;;;26.03;15.57;;;13.60;99.90;;;;;;5026510;28;20225;-59
2022/10/15 05:13:55;;;;;;;24.67;14.57;;;13.60;99.90;;;;;;5035110;28;20211;-59
2022/10/15 05:16:26;;;;;;;25.57;14.80;;;13.60;99.90;;;;;;5032427;28;20193;-59
2022/10/15 05:18:57;;;;;;;26.13;15.63;;;13.60;99.90;;;;;;5038494;28;20208;-59
2022/10/15 05:21:27;;;;;;;24.40;14.80;;;13.60;99.90;;;;;;5032926;28;20205;-59
2022/10/15 05:23:55;;;;;;;28.47;15.67;;;13.60;99.90;;;;;;5031950;28;20205;-59
2022/10/15 05:26:25;;;;;;;24.13;15.17;;;13.60;99.90;;;;;;5030500;28;20728;-59
2022/10/15 05:28:55;;;;;;;25.30;14.03;;;13.60;99.90;;;;;;5030222;28;20213;-59
2022/10/15 05:31:26;;;;;;;27.00;15.27;;;13.60;99.90;;;;;;5028624;28;20638;-59
2022/10/15 05:33:55;;;;;;;24.43;14.87;;;13.60;99.90;;;;;;5044711;28;20205;-59
2022/10/15 05:36:26;;;;;;;22.53;14.10;;;13.50;99.90;;;;;;5030565;28;20189;-59
2022/10/15 05:38:56;;;;;;;23.10;14.10;;;13.50;99.90;;;;;;5028574;28;20535;-59
2022/10/15 05:41:25;;;;;;;25.60;14.63;;;13.50;99.90;;;;;;5026823;28;20219;-59
2022/10/15 05:43:55;;;;;;;23.83;14.10;;;13.50;99.90;;;;;;5032056;28;20190;-59
2022/10/15 05:46:24;;;;;;;23.60;13.77;;;13.50;99.90;;;;;;5031796;28;20676;-59
2022/10/15 05:48:54;;;;;;;24.17;13.73;;;13.50;99.90;;;;;;5031697;28;20206;-60
2022/10/15 05:51:22;;;;;;;22.47;13.00;;;13.50;99.90;;;;;;5031654;28;20197;-59
2022/10/15 05:53:53;;;;;;;22.70;13.13;;;13.50;99.90;;;;;;5025876;28;20587;-59
2022/10/15 05:56:24;;;;;;;24.73;13.87;;;13.50;99.90;;;;;;5025389;28;20213;-59
2022/10/15 05:58:53;;;;;;;24.63;13.07;;;13.50;99.90;;;;;;5028761;28;20201;-59
2022/10/15 06:01:21;;;;;;;22.93;13.07;;;13.50;99.90;;;;;;5022109;28;20735;-59
2022/10/15 06:03:50;;;;;;;22.93;12.87;;;13.50;99.90;;;;;;5027551;28;20205;-59
2022/10/15 06:06:20;;;;;;;18.13;11.33;;;13.50;99.90;;;;;;5028956;28;20255;-59
2022/10/15 06:08:49;;;;;;;19.83;11.40;;;13.40;99.90;;;;;;5030162;28;20196;-59
2022/10/15 06:11:20;;;;;;;19.73;10.90;;;13.50;99.90;;;;;;5032078;28;20685;-59
2022/10/15 06:13:48;;;;;;;19.17;11.73;;;13.50;99.90;;;;;;5031937;28;20190;-59
2022/10/15 06:16:17;;;;;;;19.77;11.73;;;13.50;99.90;;;;;;5022528;28;20252;-59
2022/10/15 06:18:52;;;;;;;19.70;11.30;;;13.60;99.90;;;;;;5031967;28;20640;-59
2022/10/15 06:21:21;;;;;;;20.23;11.20;;;13.60;99.90;;;;;;5026201;28;20236;-59
2022/10/15 06:23:49;;;;;;;16.93;10.03;;;13.60;99.90;;;;;;5047807;28;20695;-59
2022/10/15 06:26:19;;;;;;;18.03;9.93;;;13.60;99.90;;;;;;5027510;28;20209;-59
2022/10/15 06:28:47;;;;;;;21.67;10.17;;;13.70;99.90;;;;;;5030169;28;20201;-59
2022/10/15 06:31:15;;;;;;;16.63;10.40;;;13.70;99.90;;;;;;5025233;28;20664;-59
2022/10/15 06:33:44;;;;;;;20.47;11.00;;;13.80;99.90;;;;;;5031099;28;20189;-59
2022/10/15 06:36:13;;;;;;;15.13;9.37;;;13.80;99.90;;;;;;5030401;28;20719;-59
2022/10/15 06:38:43;;;;;;;16.40;9.93;;;13.80;99.90;;;;;;5031339;28;20217;-59
2022/10/15 06:41:11;;;;;;;16.93;10.73;;;13.90;99.90;;;;;;5026752;28;20214;-59
2022/10/15 06:43:41;;;;;;;19.43;10.87;;;13.90;99.90;;;;;;5028724;28;20201;-59
2022/10/15 06:46:10;;;;;;;17.43;9.57;;;13.90;99.90;;;;;;5028740;28;20204;-59
2022/10/15 06:48:40;;;;;;;16.83;9.67;;;13.90;99.90;;;;;;5027748;28;20198;-59
2022/10/15 06:51:08;;;;;;;17.43;10.37;;;14.00;99.90;;;;;;5019620;28;20186;-59
2022/10/15 06:53:39;;;;;;;18.27;10.80;;;14.00;99.90;;;;;;5031718;28;20519;-59
2022/10/15 06:56:07;;;;;;;17.60;10.60;;;14.10;99.90;;;;;;5029399;28;20193;-59
2022/10/15 06:58:36;;;;;;;16.97;10.47;;;14.10;99.90;;;;;;5026432;28;20604;-59
2022/10/15 07:01:07;;;;;;;15.13;9.87;;;14.10;99.90;;;;;;5039787;28;20208;-59
2022/10/15 07:03:37;;;;;;;17.57;10.40;;;14.20;99.90;;;;;;5033365;28;20661;-60
2022/10/15 07:06:08;;;;;;;19.10;11.20;;;14.10;99.90;;;;;;5031176;28;20212;-60
2022/10/15 07:08:36;;;;;;;25.30;10.50;;;14.10;99.90;;;;;;5030661;28;20216;-59
2022/10/15 07:11:07;;;;;;;16.57;10.57;;;14.10;99.90;;;;;;5041449;28;20224;-61
2022/10/15 07:13:36;;;;;;;18.77;10.67;;;14.20;99.90;;;;;;5033619;28;20203;-60
2022/10/15 07:16:08;;;;;;;18.97;11.23;;;14.20;99.90;;;;;;5043080;28;20204;-60
2022/10/15 07:18:37;;;;;;;18.77;10.80;;;14.20;99.90;;;;;;5040306;28;20568;-60
2022/10/15 07:21:08;;;;;;;21.07;11.53;;;14.20;99.90;;;;;;5052130;28;20691;-59
2022/10/15 07:23:41;;;;;;;18.37;10.10;;;14.20;99.90;;;;;;5041842;28;20195;-59
2022/10/15 07:26:09;;;;;;;20.30;10.80;;;14.20;99.90;;;;;;5051910;28;20661;-60
2022/10/15 07:28:37;;;;;;;21.80;11.10;;;14.20;99.90;;;;;;5032139;28;20193;-60
2022/10/15 07:31:09;;;;;;;20.40;10.57;;;14.30;99.90;;;;;;5047802;28;20192;-60
2022/10/15 07:33:37;;;;;;;19.70;10.33;;;14.30;99.90;;;;;;5045250;28;20189;-60
2022/10/15 07:36:08;;;;;;;22.63;11.10;;;14.30;99.90;;;;;;5048224;28;20213;-60
2022/10/15 07:38:38;;;;;;;18.47;10.97;;;14.40;99.90;;;;;;5045873;28;20213;-60
2022/10/15 07:41:09;;;;;;;20.17;10.60;;;14.40;99.90;;;;;;5034678;28;20217;-60
2022/10/15 07:43:38;;;;;;;21.40;10.73;;;14.40;99.90;;;;;;5040220;28;20194;-60
2022/10/15 07:46:07;;;;;;;20.97;11.07;;;14.50;99.90;;;;;;5049313;28;20197;-60
2022/10/15 07:48:36;;;;;;;20.63;10.47;;;14.50;99.90;;;;;;5038088;28;20190;-60
2022/10/15 07:51:06;;;;;;;18.33;9.93;;;14.50;99.90;;;;;;5048370;28;20200;-60
2022/10/15 07:53:35;;;;;;;20.73;11.00;;;14.50;99.90;;;;;;5046458;28;20190;-60
2022/10/15 07:56:06;;;;;;;16.70;9.23;;;14.60;99.90;;;;;;5052586;28;20193;-60
2022/10/15 07:58:36;;;;;;;19.03;10.17;;;14.70;99.90;;;;;;5035785;28;20193;-60
2022/10/15 08:01:05;;;;;;;19.87;10.27;;;14.70;99.90;;;;;;5035013;28;20191;-60
2022/10/15 08:03:35;;;;;;;24.27;10.03;;;14.80;99.90;;;;;;5034278;28;20305;-60
2022/10/15 08:06:05;;;;;;;13.77;8.10;;;14.80;99.90;;;;;;5032347;28;20654;-60
2022/10/15 08:08:34;;;;;;;15.07;8.80;;;14.80;99.90;;;;;;5035898;28;20215;-60
2022/10/15 08:11:05;;;;;;;16.50;9.03;;;14.80;99.90;;;;;;5036863;28;20304;-60
2022/10/15 08:13:33;;;;;;;12.47;8.30;;;14.90;99.90;;;;;;5037926;28;20208;-60
2022/10/15 08:16:01;;;;;;;11.43;8.07;;;14.90;99.90;;;;;;5044385;28;20760;-60
2022/10/15 08:18:30;;;;;;;11.63;7.60;;;14.90;99.90;;;;;;5052423;28;20203;-60
2022/10/15 08:21:00;;;;;;;10.30;7.10;;;14.90;99.90;;;;;;5033484;28;20201;-60
2022/10/15 08:23:29;;;;;;;10.63;7.10;;;14.80;99.90;;;;;;5032637;28;20557;-60
2022/10/15 08:25:59;;;;;;;10.20;7.03;;;14.90;99.90;;;;;;5033091;28;20201;-59
2022/10/15 08:28:30;;;;;;;8.67;6.07;;;14.90;99.90;;;;;;5032836;28;20202;-60
2022/10/15 08:30:59;;;;;;;7.83;5.83;;;14.90;99.90;;;;;;5036346;28;20284;-60
2022/10/15 08:33:33;;;;;;;8.20;6.03;;;15.00;99.90;;;;;;5036187;28;20955;-60
2022/10/15 08:36:05;;;;;;;7.57;5.67;;;15.10;99.90;;;;;;5017083;28;20194;-59
2022/10/15 08:38:33;;;;;;;8.20;5.70;;;15.20;99.90;;;;;;5044612;28;20248;-60
2022/10/15 08:41:06;;;;;;;7.97;5.43;;;15.20;99.90;;;;;;5035995;28;20665;-60
2022/10/15 08:43:37;;;;;;;7.87;4.80;;;15.20;99.90;;;;;;5025250;28;20226;-60
2022/10/15 08:46:12;;;;;;;5.77;4.70;;;15.20;99.90;;;;;;5031029;28;20191;-60
2022/10/15 08:48:44;;;;;;;4.97;4.47;;;15.20;99.90;;;;;;5028873;28;20194;-60
2022/10/15 08:51:17;;;;;;;5.37;4.20;;;15.20;99.90;;;;;;5031860;28;20202;-59
2022/10/15 08:53:49;;;;;;;3.83;3.53;;;15.30;99.90;;;;;;5029240;28;20191;-60
2022/10/15 08:56:20;;;;;;;4.53;3.83;;;15.30;99.90;;;;;;5030372;28;20205;-60
2022/10/15 08:58:55;;;;;;;3.63;3.33;;;15.30;99.90;;;;;;5032913;28;20200;-60
2022/10/15 09:01:28;;;;;;;3.53;3.27;;;15.30;99.90;;;;;;5033066;28;20208;-60
2022/10/15 09:04:07;;;;;;;3.17;3.07;;;15.40;99.90;;;;;;5030356;28;20195;-59
2022/10/15 09:06:39;;;;;;;3.30;3.10;;;15.50;99.90;;;;;;5025053;28;20194;-59
2022/10/15 09:09:15;;;;;;;3.23;3.03;;;15.50;99.90;;;;;;5029442;28;20207;-60
2022/10/15 09:11:53;;;;;;;3.07;2.87;;;15.60;99.90;;;;;;5044541;28;20199;-59
2022/10/15 09:14:27;;;;;;;2.97;2.63;;;15.60;99.90;;;;;;5044066;28;20634;-60
2022/10/15 09:16:56;;;;;;;3.20;3.00;;;15.70;99.90;;;;;;5032804;28;20198;-60
2022/10/15 09:19:27;;;;;;;3.30;3.10;;;15.80;99.90;;;;;;5033199;28;20275;-60
2022/10/15 09:21:57;;;;;;;3.33;3.10;;;15.80;99.90;;;;;;5031612;28;20225;-60
2022/10/15 09:24:28;;;;;;;5.47;3.23;;;15.90;99.90;;;;;;5030483;28;20198;-60
2022/10/15 09:27:06;;;;;;;3.00;2.90;;;15.90;99.90;;;;;;5039309;28;20202;-60
2022/10/15 09:29:41;;;;;;;3.30;3.20;;;16.10;99.90;;;;;;5033260;28;20217;-60
2022/10/15 09:32:17;;;;;;;3.13;3.00;;;16.10;99.90;;;;;;5048428;28;20197;-60
2022/10/15 09:34:53;;;;;;;3.00;2.80;;;16.10;99.90;;;;;;5051412;28;20208;-60
2022/10/15 09:37:28;;;;;;;3.23;3.10;;;16.20;99.90;;;;;;5050988;28;20198;-60
2022/10/15 09:40:16;;;;;;;3.50;3.30;;;16.20;99.90;;;;;;5043722;28;20565;-60
2022/10/15 09:42:45;;;;;;;3.20;3.10;;;16.30;99.90;;;;;;5046215;28;20219;-60
2022/10/15 09:45:15;;;;;;;3.60;3.30;;;16.30;99.90;;;;;;5031741;28;20527;-60
2022/10/15 09:47:44;;;;;;;3.50;3.27;;;16.40;99.90;;;;;;5050466;28;20521;-60
2022/10/15 09:50:14;;;;;;;3.27;3.00;;;16.40;99.90;;;;;;5049690;28;20596;-60
2022/10/15 09:53:03;;;;;;;3.27;3.17;;;16.40;99.90;;;;;;5035224;28;20207;-60
2022/10/15 09:55:41;;;;;;;3.33;3.23;;;16.50;99.90;;;;;;5041775;28;20641;-60
2022/10/15 09:58:16;;;;;;;3.73;3.63;;;16.60;99.90;;;;;;5037855;28;20206;-60
2022/10/15 10:01:01;;;;;;;3.43;3.23;;;16.70;99.90;;;;;;5037733;28;20212;-60
2022/10/15 10:03:31;;;;;;;3.67;3.47;;;16.70;99.90;;;;;;5043222;28;20837;-60
2022/10/15 10:06:02;;;;;;;3.10;3.00;;;16.80;99.90;;;;;;5042066;28;20189;-60
2022/10/15 10:08:35;;;;;;;3.20;3.10;;;16.80;99.90;;;;;;5030512;28;20316;-60
2022/10/15 10:11:06;;;;;;;2.67;2.50;;;16.90;99.90;;;;;;5030244;28;20621;-60
2022/10/15 10:13:39;;;;;;;2.90;2.80;;;16.90;99.90;;;;;;5037901;28;20190;-60
2022/10/15 10:16:10;;;;;;;2.80;2.70;;;17.10;99.90;;;;;;5036424;28;20201;-60
2022/10/15 10:18:39;;;;;;;2.87;2.67;;;17.20;99.90;;;;;;5025334;28;20710;-60
2022/10/15 10:21:22;;;;;;;3.80;3.60;;;17.40;99.90;;;;;;5043510;28;20215;-60
2022/10/15 10:23:52;;;;;;;3.53;3.43;;;17.50;99.90;;;;;;5031971;28;20723;-60
2022/10/15 10:26:20;;;;;;;2.93;2.83;;;17.60;99.90;;;;;;5042684;28;20683;-60
2022/10/15 10:28:52;;;;;;;2.93;2.83;;;17.70;99.90;;;;;;5041214;28;20198;-60
2022/10/15 10:31:41;;;;;;;3.30;3.20;;;17.70;99.90;;;;;;5050406;28;20209;-60
2022/10/15 10:34:16;;;;;;;4.00;3.70;;;17.70;99.90;;;;;;5040752;28;20243;-60
2022/10/15 10:36:49;;;;;;;3.23;3.13;;;17.70;99.90;;;;;;5033111;28;20200;-60
2022/10/15 10:39:25;;;;;;;3.43;3.33;;;17.70;99.90;;;;;;5027150;28;20213;-60
2022/10/15 10:41:55;;;;;;;3.80;3.50;;;17.70;99.90;;;;;;5027758;28;20806;-60
2022/10/15 10:44:29;;;;;;;3.30;3.20;;;17.60;99.90;;;;;;5007825;28;20229;-60
2022/10/15 10:47:14;;;;;;;4.13;3.77;;;17.60;99.90;;;;;;5026444;28;20206;-60
2022/10/15 10:49:44;;;;;;;3.87;3.67;;;17.60;99.90;;;;;;5026918;28;20638;-60
2022/10/15 10:52:24;;;;;;;3.50;3.40;;;17.50;99.90;;;;;;5026907;28;20190;-60
2022/10/15 10:55:00;;;;;;;3.73;3.53;;;17.50;99.90;;;;;;5025893;28;20560;-60
2022/10/15 10:57:45;;;;;;;3.97;3.87;;;17.50;99.90;;;;;;5025889;28;20201;-60
2022/10/15 11:00:18;;;;;;;4.53;4.03;;;17.70;99.90;;;;;;5025861;28;20197;-60
2022/10/15 11:02:46;;;;;;;3.90;3.70;;;17.70;99.90;;;;;;5023154;28;20201;-60
2022/10/15 11:05:19;;;;;;;4.00;3.70;;;17.70;99.90;;;;;;5025276;28;20197;-60
2022/10/15 11:07:57;;;;;;;3.60;3.50;;;17.80;99.90;;;;;;5025076;28;20205;-60
2022/10/15 11:10:33;;;;;;;3.20;3.10;;;17.90;99.90;;;;;;5023900;28;20234;-60
2022/10/15 11:13:17;;;;;;;2.93;2.70;;;18.10;99.90;;;;;;5023362;28;20281;-60
2022/10/15 11:15:52;;;;;;;1.93;1.83;;;18.20;99.90;;;;;;5025520;28;20209;-60
2022/10/15 11:18:32;;;;;;;1.47;1.47;;;18.30;99.90;;;;;;5025530;28;20725;-60
2022/10/15 11:21:10;;;;;;;1.97;1.87;;;18.40;99.90;;;;;;5022253;28;20713;-60
2022/10/15 11:23:51;;;;;;;1.00;1.00;;;18.80;99.90;;;;;;5028871;28;20609;-60
2022/10/15 11:26:48;;;;;;;1.23;1.20;;;19.10;99.90;;;;;;5022653;28;20197;-60
2022/10/15 11:29:45;;;;;;;2.27;1.27;;;19.30;99.90;;;;;;5029929;28;20666;-60
2022/10/15 11:32:28;;;;;;;0.90;0.90;;;19.60;99.90;;;;;;5027266;28;20205;-60
2022/10/15 11:35:36;;;;;;;1.50;1.17;;;19.70;99.90;;;;;;5031532;28;20225;-60
2022/10/15 11:38:30;;;;;;;1.47;1.47;;;19.50;99.90;;;;;;5025285;28;20224;-60
2022/10/15 11:41:18;;;;;;;1.10;1.10;;;19.40;99.90;;;;;;5022314;28;20197;-60
2022/10/15 11:44:03;;;;;;;2.07;1.47;;;19.40;99.90;;;;;;5026404;28;20225;-60
2022/10/15 11:46:38;;;;;;;1.70;1.70;;;19.30;99.90;;;;;;5032446;28;20189;-60
2022/10/15 11:49:26;;;;;;;2.00;1.90;;;19.10;99.90;;;;;;5025459;28;20234;-60
2022/10/15 11:52:22;;;;;;;2.00;1.90;;;19.00;99.90;;;;;;5031834;28;20281;-60
2022/10/15 11:55:01;;;;;;;1.67;1.53;;;18.90;99.90;;;;;;5022255;28;20200;-60
2022/10/15 11:57:32;;;;;;;1.30;1.30;;;18.70;99.90;;;;;;5025502;28;20697;-60
2022/10/15 12:00:06;;;;;;;1.77;1.67;;;18.60;99.90;;;;;;5015606;28;20205;-60
2022/10/15 12:02:36;;;;;;;1.17;1.10;;;18.50;99.90;;;;;;5024916;28;20762;-60
2022/10/15 12:05:08;;;;;;;2.13;1.30;;;18.40;99.90;;;;;;5024293;28;20566;-59
2022/10/15 12:07:43;;;;;;;0.60;0.60;;;18.30;99.90;;;;;;5027512;28;20197;-60
2022/10/15 12:10:27;;;;;;;1.37;1.20;;;18.30;99.90;;;;;;5023004;28;20225;-60
2022/10/15 12:13:02;;;;;;;1.13;1.10;;;18.20;99.90;;;;;;5024647;28;20198;-60
2022/10/15 12:15:41;;;;;;;0.90;0.90;;;18.20;99.90;;;;;;5023620;28;20204;-59
2022/10/15 12:18:18;;;;;;;1.10;1.10;;;18.30;99.90;;;;;;5022213;28;20213;-59
2022/10/15 12:20:46;;;;;;;1.40;1.30;;;18.50;99.90;;;;;;5038929;28;20191;-60
2022/10/15 12:23:25;;;;;;;3.33;1.50;;;18.70;99.90;;;;;;5022466;28;20292;-60
2022/10/15 12:25:53;;;;;;;1.27;1.17;;;18.60;99.90;;;;;;5021162;28;20197;-60
2022/10/15 12:28:26;;;;;;;1.53;0.63;;;18.50;99.90;;;;;;5026864;28;20197;-61
2022/10/15 12:31:06;;;;;;;1.20;1.20;;;18.30;99.90;;;;;;5026919;28;20205;-59
2022/10/15 12:33:45;;;;;;;2.87;1.20;;;18.30;99.90;;;;;;5022691;28;20681;-59
2022/10/15 12:36:26;;;;;;;1.43;1.20;;;18.50;99.90;;;;;;5024716;28;20193;-60
2022/10/15 12:38:59;;;;;;;2.53;1.10;;;18.60;99.90;;;;;;5022143;28;20497;-60
2022/10/15 12:41:40;;;;;;;3.67;1.50;;;18.70;99.90;;;;;;5027877;28;20192;-60
2022/10/15 12:44:19;;;;;;;1.20;1.07;;;18.80;99.90;;;;;;5025624;28;20220;-59
2022/10/15 12:46:49;;;;;;;2.33;1.03;;;18.80;99.90;;;;;;5025648;28;21901;-60
2022/10/15 12:49:46;;;;;;;1.10;1.10;;;18.90;99.90;;;;;;5024924;28;20201;-60
2022/10/15 12:52:56;;;;;;;1.30;1.30;;;19.00;99.90;;;;;;5019321;28;20202;-59
2022/10/15 12:55:35;;;;;;;1.37;1.27;;;19.30;99.90;;;;;;5041675;28;20197;-60
2022/10/15 12:58:08;;;;;;;2.37;1.50;;;19.20;99.90;;;;;;5016150;28;20201;-60
2022/10/15 13:00:42;;;;;;;1.20;1.20;;;19.20;99.90;;;;;;5018916;28;20214;-59